Time;durP1;ratioP1;P1;durP2;ratioP2;P2;SDS_P1;SDS_P2;PMS_P1;PMS_P2;Temp;Humidity;BMP_temperature;BMP_pressure;BME280_temperature;BME280_humidity;BME280_pressure;Samples;Min_cycle;Max_cycle;Signal;HPM_P1;HPM_P2
2023/05/21 00:00:19;;;;;;;9.35;4.20;;;;;;;;;;6350121;22;20002;-89
2023/05/21 00:02:58;;;;;;;9.80;4.10;;;;;;;;;;6351304;22;20002;-90
2023/05/21 00:05:28;;;;;;;5.35;3.67;;;;;;;;;;6324760;22;20021;-88
2023/05/21 00:10:53;;;;;;;6.68;3.92;;;;;;;;;;6318742;22;20820;-89
2023/05/21 00:13:22;;;;;;;8.50;3.70;;;;;;;;;;6349442;22;20029;-90
2023/05/21 00:16:17;;;;;;;;;;;;;;;;;;;;;
2023/05/21 00:18:48;;;;;;;6.60;4.20;;;;;;;;;;6377041;22;20033;-90
2023/05/21 00:21:53;;;;;;;10.52;3.72;;;;;;;;;;6349053;22;19998;-90
2023/05/21 00:24:23;;;;;;;6.88;4.97;;;;;;;;;;6296020;22;20015;-90
2023/05/21 00:26:50;;;;;;;5.90;3.72;;;;;;;;;;6285014;22;20014;-89
2023/05/21 00:29:16;;;;;;;6.05;3.63;;;;;;;;;;6310013;22;20021;-89
2023/05/21 00:31:50;;;;;;;8.13;4.70;;;;;;;;;;6309284;22;20007;-90
2023/05/21 00:34:29;;;;;;;9.20;3.92;;;;;;;;;;6308941;22;20030;-89
2023/05/21 00:37:14;;;;;;;6.90;3.63;;;;;;;;;;6310146;22;19999;-89
2023/05/21 00:39:45;;;;;;;7.25;3.75;;;;;;;;;;6309775;22;20030;-90
2023/05/21 00:42:29;;;;;;;11.25;3.97;;;;;;;;;;6310010;22;20333;-90
2023/05/21 00:45:04;;;;;;;7.45;3.65;;;;;;;;;;6284369;22;20045;-90
2023/05/21 00:47:36;;;;;;;6.93;4.00;;;;;;;;;;6310062;22;20059;-90
2023/05/21 00:50:08;;;;;;;13.18;3.83;;;;;;;;;;6285330;22;20069;-90
2023/05/21 00:55:26;;;;;;;10.07;3.60;;;;;;;;;;6281989;22;20022;-90
2023/05/21 00:57:52;;;;;;;9.30;4.72;;;;;;;;;;6309377;22;20088;-90
2023/05/21 01:00:19;;;;;;;9.32;4.28;;;;;;;;;;6313746;22;20007;-89
2023/05/21 01:02:48;;;;;;;8.45;4.20;;;;;;;;;;6314111;22;20010;-90
2023/05/21 01:05:34;;;;;;;7.43;4.28;;;;;;;;;;6315388;22;20003;-90
2023/05/21 01:08:03;;;;;;;7.05;3.83;;;;;;;;;;6314993;22;20499;-90
2023/05/21 01:10:30;;;;;;;8.63;4.10;;;;;;;;;;6290246;22;20014;-89
2023/05/21 01:12:57;;;;;;;9.07;4.20;;;;;;;;;;6315638;22;20010;-90
2023/05/21 01:15:27;;;;;;;8.38;4.15;;;;;;;;;;6341936;22;20002;-89
2023/05/21 01:17:54;;;;;;;5.72;3.90;;;;;;;;;;6314856;22;20082;-90
2023/05/21 01:23:23;;;;;;;11.55;4.18;;;;;;;;;;6339668;22;20036;-90
2023/05/21 01:25:56;;;;;;;10.80;4.25;;;;;;;;;;6319729;22;20432;-90
2023/05/21 01:28:34;;;;;;;8.18;4.13;;;;;;;;;;6347220;22;20029;-91
2023/05/21 01:31:21;;;;;;;;;;;;;;;;;;;;;
2023/05/21 01:34:15;;;;;;;9.00;4.57;;;;;;;;;;6374392;22;20025;-90
2023/05/21 01:39:59;;;;;;;8.25;4.30;;;;;;;;;;6315233;22;20009;-90
2023/05/21 01:42:29;;;;;;;11.80;4.65;;;;;;;;;;6373007;22;20007;-90
2023/05/21 01:47:49;;;;;;;7.18;4.35;;;;;;;;;;6373256;22;20013;-90
2023/05/21 01:50:19;;;;;;;9.05;4.93;;;;;;;;;;6373847;22;20010;-90
2023/05/21 01:52:53;;;;;;;8.82;4.47;;;;;;;;;;6345299;22;20037;-90
2023/05/21 01:55:24;;;;;;;7.60;4.35;;;;;;;;;;6345711;22;20519;-91
2023/05/21 01:58:00;;;;;;;8.75;4.75;;;;;;;;;;6373497;22;20085;-90
2023/05/21 02:00:37;;;;;;;9.20;5.03;;;;;;;;;;6345697;22;20002;-90
2023/05/21 02:03:03;;;;;;;11.63;4.90;;;;;;;;;;6321394;22;20009;-89
2023/05/21 02:05:44;;;;;;;15.23;5.25;;;;;;;;;;6345186;22;20418;-90
2023/05/21 02:08:34;;;;;;;7.75;4.70;;;;;;;;;;6320156;22;20010;-89
2023/05/21 02:11:00;;;;;;;9.32;4.80;;;;;;;;;;6325900;22;20014;-90
2023/05/21 02:13:31;;;;;;;10.10;4.95;;;;;;;;;;6319609;22;20519;-90
2023/05/21 02:16:08;;;;;;;;;;;;;;;;;;;;;
2023/05/21 02:18:46;;;;;;;17.38;4.85;;;;;;;;;;6349941;22;20022;-90
2023/05/21 02:21:19;;;;;;;12.40;5.80;;;;;;;;;;6346342;22;20030;-90
2023/05/21 02:23:54;;;;;;;9.35;4.93;;;;;;;;;;6348757;22;20018;-90
2023/05/21 02:26:21;;;;;;;8.40;4.63;;;;;;;;;;6321111;22;20536;-90
2023/05/21 02:29:06;;;;;;;13.20;5.95;;;;;;;;;;6322221;22;20425;-90
2023/05/21 02:31:50;;;;;;;16.55;5.50;;;;;;;;;;6347245;22;20011;-90
2023/05/21 02:34:41;;;;;;;12.43;5.50;;;;;;;;;;6321512;22;20026;-90
2023/05/21 02:39:56;;;;;;;13.35;4.78;;;;;;;;;;6376058;22;20014;-90
2023/05/21 02:42:40;;;;;;;8.73;4.97;;;;;;;;;;6322997;22;20550;-91
2023/05/21 02:45:15;;;;;;;14.63;5.32;;;;;;;;;;6322662;22;20010;-90
2023/05/21 02:50:46;;;;;;;11.40;4.93;;;;;;;;;;6309258;22;20014;-90
2023/05/21 02:53:12;;;;;;;12.60;5.43;;;;;;;;;;6321387;22;20299;-90
2023/05/21 02:55:47;;;;;;;12.55;5.78;;;;;;;;;;6345491;22;20097;-89
2023/05/21 02:58:29;;;;;;;9.48;5.32;;;;;;;;;;6321693;22;20011;-90
2023/05/21 03:00:57;;;;;;;13.00;5.80;;;;;;;;;;6341636;22;20005;-90
2023/05/21 03:03:37;;;;;;;13.63;6.07;;;;;;;;;;6347437;22;20514;-90
2023/05/21 03:06:03;;;;;;;12.45;6.38;;;;;;;;;;6320903;22;20022;-90
2023/05/21 03:08:36;;;;;;;12.32;6.10;;;;;;;;;;6347124;22;20010;-89
2023/05/21 03:11:09;;;;;;;10.63;5.55;;;;;;;;;;6347772;22;20700;-90
2023/05/21 03:13:42;;;;;;;11.18;5.28;;;;;;;;;;6347030;22;20041;-90
2023/05/21 03:16:14;;;;;;;15.10;7.55;;;;;;;;;;6349311;22;20013;-90
2023/05/21 03:18:49;;;;;;;10.35;5.80;;;;;;;;;;6325747;22;20014;-90
2023/05/21 03:21:16;;;;;;;14.35;5.85;;;;;;;;;;6349014;22;20002;-89
2023/05/21 03:23:42;;;;;;;17.77;6.20;;;;;;;;;;6326000;22;20095;-90
2023/05/21 03:26:28;;;;;;;13.23;5.68;;;;;;;;;;6349610;22;20085;-89
2023/05/21 03:29:02;;;;;;;10.35;5.68;;;;;;;;;;6350295;22;20002;-90
2023/05/21 03:31:31;;;;;;;13.52;6.20;;;;;;;;;;6347451;22;20010;-90
2023/05/21 03:34:00;;;;;;;12.65;5.10;;;;;;;;;;6325506;22;20006;-90
2023/05/21 03:36:56;;;;;;;14.20;5.50;;;;;;;;;;6370577;22;20098;-89
2023/05/21 03:39:35;;;;;;;10.57;5.22;;;;;;;;;;6347045;22;20058;-90
2023/05/21 03:42:04;;;;;;;17.00;5.68;;;;;;;;;;6324164;22;20462;-89
2023/05/21 03:44:31;;;;;;;11.55;5.45;;;;;;;;;;6321896;22;20491;-90
2023/05/21 03:47:24;;;;;;;8.10;4.63;;;;;;;;;;6346430;22;20086;-90
2023/05/21 03:49:53;;;;;;;13.20;4.63;;;;;;;;;;6346519;22;20002;-90
2023/05/21 03:52:19;;;;;;;15.13;5.28;;;;;;;;;;6321483;22;20007;-90
2023/05/21 03:54:45;;;;;;;12.07;5.80;;;;;;;;;;6346042;22;20002;-90
2023/05/21 03:57:26;;;;;;;13.18;5.22;;;;;;;;;;6346389;22;19998;-91
2023/05/21 03:59:57;;;;;;;10.35;4.97;;;;;;;;;;6324539;22;20456;-90
2023/05/21 04:02:28;;;;;;;12.10;5.40;;;;;;;;;;6345074;22;20010;-90
2023/05/21 04:04:57;;;;;;;14.90;5.32;;;;;;;;;;6321296;22;20085;-90
2023/05/21 04:07:41;;;;;;;8.82;4.72;;;;;;;;;;6345150;22;20444;-89
2023/05/21 04:10:10;;;;;;;15.27;5.22;;;;;;;;;;6320812;22;20109;-89
2023/05/21 04:13:03;;;;;;;11.30;4.63;;;;;;;;;;6346591;22;20497;-90
2023/05/21 04:15:39;;;;;;;11.00;5.20;;;;;;;;;;6332440;22;20033;-90
2023/05/21 04:18:08;;;;;;;9.73;4.78;;;;;;;;;;6344271;22;19998;-90
2023/05/21 04:20:37;;;;;;;15.63;4.95;;;;;;;;;;6320244;22;20006;-90
2023/05/21 04:23:10;;;;;;;8.82;4.82;;;;;;;;;;6346434;22;20021;-90
2023/05/21 04:25:50;;;;;;;10.25;5.43;;;;;;;;;;6345592;22;20006;-90
2023/05/21 04:28:40;;;;;;;8.48;4.28;;;;;;;;;;6371891;22;20515;-90
2023/05/21 04:31:24;;;;;;;11.45;4.93;;;;;;;;;;6322198;22;20021;-90
2023/05/21 04:33:56;;;;;;;14.75;4.80;;;;;;;;;;6346229;22;20002;-90
2023/05/21 04:36:23;;;;;;;8.13;4.22;;;;;;;;;;6345161;22;20290;-90
2023/05/21 04:38:53;;;;;;;9.57;4.68;;;;;;;;;;6345928;22;20003;-90
2023/05/21 04:41:27;;;;;;;10.85;4.70;;;;;;;;;;6320867;22;20007;-90
2023/05/21 04:44:27;;;;;;;14.70;4.55;;;;;;;;;;6344254;22;20017;-90
2023/05/21 04:46:53;;;;;;;9.55;4.55;;;;;;;;;;6372841;22;20014;-90
2023/05/21 04:49:41;;;;;;;9.25;4.82;;;;;;;;;;6346417;22;20062;-90
2023/05/21 04:52:15;;;;;;;13.88;4.75;;;;;;;;;;6348652;22;20014;-91
2023/05/21 04:54:44;;;;;;;11.50;3.72;;;;;;;;;;6326085;22;20029;-91
2023/05/21 04:57:20;;;;;;;6.30;3.47;;;;;;;;;;6323121;22;20086;-91
2023/05/21 05:00:08;;;;;;;13.02;4.72;;;;;;;;;;6374877;22;19998;-91
2023/05/21 05:02:44;;;;;;;9.98;4.22;;;;;;;;;;6375957;22;19999;-91
2023/05/21 05:05:10;;;;;;;6.13;3.78;;;;;;;;;;6347585;22;20007;-89
2023/05/21 05:07:44;;;;;;;9.75;3.75;;;;;;;;;;6321272;22;20065;-90
2023/05/21 05:10:13;;;;;;;11.10;4.60;;;;;;;;;;6322571;22;20021;-90
2023/05/21 05:12:48;;;;;;;15.18;4.80;;;;;;;;;;6324293;22;20021;-91
2023/05/21 05:15:51;;;;;;;14.65;4.88;;;;;;;;;;6349048;22;20375;-91
2023/05/21 05:18:21;;;;;;;9.68;3.55;;;;;;;;;;6340176;22;19998;-88
2023/05/21 05:20:56;;;;;;;10.20;3.85;;;;;;;;;;6346011;22;20022;-91
2023/05/21 05:23:25;;;;;;;9.33;3.97;;;;;;;;;;6320650;22;20081;-91
2023/05/21 05:25:59;;;;;;;14.52;4.85;;;;;;;;;;6319550;22;20244;-91
2023/05/21 05:28:37;;;;;;;9.63;3.83;;;;;;;;;;6373580;22;20014;-91
2023/05/21 05:31:25;;;;;;;8.40;3.72;;;;;;;;;;6298265;22;20255;-91
2023/05/21 05:34:02;;;;;;;7.65;3.53;;;;;;;;;;6373755;22;20057;-91
2023/05/21 05:36:31;;;;;;;6.90;3.67;;;;;;;;;;6345970;22;20014;-91
2023/05/21 05:39:02;;;;;;;10.95;4.10;;;;;;;;;;6304961;22;20006;-90
2023/05/21 05:41:28;;;;;;;9.93;3.08;;;;;;;;;;6320492;22;20002;-91
2023/05/21 05:43:56;;;;;;;10.27;3.95;;;;;;;;;;6320090;22;20320;-91
2023/05/21 05:46:30;;;;;;;8.38;3.85;;;;;;;;;;6319736;22;20017;-91
2023/05/21 05:48:59;;;;;;;9.95;3.40;;;;;;;;;;6321238;22;20034;-91
2023/05/21 05:51:28;;;;;;;12.35;3.85;;;;;;;;;;6340697;22;20011;-91
2023/05/21 05:54:02;;;;;;;12.40;3.95;;;;;;;;;;6346110;22;20002;-91
2023/05/21 05:59:24;;;;;;;9.93;3.50;;;;;;;;;;6338354;22;20015;-91
2023/05/21 06:02:05;;;;;;;7.05;3.38;;;;;;;;;;6346840;22;20006;-91
2023/05/21 06:04:34;;;;;;;12.50;4.10;;;;;;;;;;6346883;22;19999;-91
2023/05/21 06:07:06;;;;;;;10.75;4.05;;;;;;;;;;6343777;22;20459;-91
2023/05/21 06:09:32;;;;;;;12.23;4.10;;;;;;;;;;6346774;22;20032;-90
2023/05/21 06:11:58;;;;;;;12.65;3.78;;;;;;;;;;6347135;22;19999;-89
2023/05/21 06:14:30;;;;;;;12.60;4.30;;;;;;;;;;6321455;22;20051;-91
2023/05/21 06:17:01;;;;;;;9.07;3.30;;;;;;;;;;6345282;22;20098;-91
2023/05/21 06:19:29;;;;;;;11.05;3.97;;;;;;;;;;6322075;22;20059;-91
2023/05/21 06:21:56;;;;;;;14.45;4.00;;;;;;;;;;6347236;22;20063;-91
2023/05/21 06:24:39;;;;;;;5.75;3.60;;;;;;;;;;6350443;22;20018;-91
2023/05/21 06:27:22;;;;;;;7.47;3.50;;;;;;;;;;6348583;22;20443;-91
2023/05/21 06:29:56;;;;;;;6.97;3.63;;;;;;;;;;6347376;22;20603;-91
2023/05/21 06:32:52;;;;;;;8.48;3.60;;;;;;;;;;6321320;22;20592;-91
2023/05/21 06:35:35;;;;;;;7.35;3.47;;;;;;;;;;6222491;23;20035;-91
2023/05/21 06:38:11;;;;;;;10.50;4.05;;;;;;;;;;6315578;22;20006;-91
2023/05/21 06:40:43;;;;;;;11.77;4.20;;;;;;;;;;6342866;22;19999;-91
2023/05/21 06:43:12;;;;;;;11.88;3.40;;;;;;;;;;6346697;22;20005;-91
2023/05/21 06:45:46;;;;;;;7.80;3.80;;;;;;;;;;6346551;22;20007;-92
2023/05/21 06:48:21;;;;;;;9.02;3.55;;;;;;;;;;6320971;22;20017;-90
2023/05/21 06:53:57;;;;;;;7.70;3.65;;;;;;;;;;6352381;22;20011;-91
2023/05/21 06:56:25;;;;;;;9.82;4.13;;;;;;;;;;6319962;22;20014;-90
2023/05/21 06:59:00;;;;;;;13.07;3.38;;;;;;;;;;6322156;22;20017;-91
2023/05/21 07:01:29;;;;;;;13.80;4.05;;;;;;;;;;6322351;22;20026;-90
2023/05/21 07:03:57;;;;;;;10.60;3.55;;;;;;;;;;6349690;22;20002;-91
2023/05/21 07:06:23;;;;;;;14.65;5.07;;;;;;;;;;6348657;22;20027;-91
2023/05/21 07:08:51;;;;;;;6.25;3.40;;;;;;;;;;6349608;22;20006;-91
2023/05/21 07:11:21;;;;;;;10.02;4.18;;;;;;;;;;6348265;22;20002;-91
2023/05/21 07:19:58;;;;;;;12.50;3.55;;;;;;;;;;6230261;22;20014;-91
2023/05/21 07:22:30;;;;;;;9.88;3.25;;;;;;;;;;6253635;22;20015;-91
2023/05/21 07:25:08;;;;;;;6.35;3.70;;;;;;;;;;6307253;22;20067;-91
2023/05/21 07:27:34;;;;;;;10.05;3.60;;;;;;;;;;6348021;22;20017;-90
2023/05/21 07:30:06;;;;;;;9.23;3.70;;;;;;;;;;6348765;22;19994;-91
2023/05/21 07:33:01;;;;;;;7.18;3.28;;;;;;;;;;6352885;22;20079;-92
2023/05/21 07:35:27;;;;;;;8.02;3.47;;;;;;;;;;6350413;22;20014;-91
2023/05/21 07:37:57;;;;;;;5.25;3.30;;;;;;;;;;6352449;22;20003;-91
2023/05/21 07:40:26;;;;;;;9.68;2.90;;;;;;;;;;6352138;22;20066;-89
2023/05/21 07:43:19;;;;;;;9.63;3.92;;;;;;;;;;6352149;22;20466;-91
2023/05/21 07:45:47;;;;;;;8.23;3.00;;;;;;;;;;6352435;22;20226;-92
2023/05/21 07:48:23;;;;;;;5.43;2.80;;;;;;;;;;6350263;22;20006;-90
2023/05/21 07:51:07;;;;;;;9.60;3.53;;;;;;;;;;6327001;22;20010;-90
2023/05/21 07:56:37;;;;;;;7.28;3.30;;;;;;;;;;6379716;22;20021;-91
2023/05/21 07:59:05;;;;;;;9.30;3.47;;;;;;;;;;6353132;22;20033;-92
2023/05/21 08:01:36;;;;;;;8.25;3.25;;;;;;;;;;6353121;22;20007;-91
2023/05/21 08:04:15;;;;;;;11.57;3.75;;;;;;;;;;6317044;22;20449;-91
2023/05/21 08:06:46;;;;;;;8.20;3.35;;;;;;;;;;6378216;22;20432;-90
2023/05/21 08:15:18;;;;;;;8.55;3.03;;;;;;;;;;6380310;22;20063;-91
2023/05/21 08:17:56;;;;;;;14.63;3.33;;;;;;;;;;6325997;22;20006;-91
2023/05/21 08:20:31;;;;;;;8.60;3.88;;;;;;;;;;6347831;22;20035;-91
2023/05/21 08:23:17;;;;;;;5.10;3.28;;;;;;;;;;6349796;22;20006;-91
2023/05/21 08:25:43;;;;;;;;;;;;;;;;;;6332088;22;20029;-91
2023/05/21 08:28:15;;;;;;;7.47;3.45;;;;;;;;;;6353531;22;19902;-91
2023/05/21 08:30:45;;;;;;;5.47;3.20;;;;;;;;;;6329978;22;20075;-91
2023/05/21 08:33:19;;;;;;;7.32;3.50;;;;;;;;;;6330040;22;20095;-91
2023/05/21 08:35:55;;;;;;;9.55;2.78;;;;;;;;;;6381963;22;20018;-91
2023/05/21 08:38:24;;;;;;;6.68;2.88;;;;;;;;;;6353441;22;20002;-91
2023/05/21 08:40:58;;;;;;;4.57;2.85;;;;;;;;;;6327355;22;20006;-91
2023/05/21 08:43:28;;;;;;;7.28;3.17;;;;;;;;;;6354263;22;20010;-92
2023/05/21 08:46:00;;;;;;;8.45;2.83;;;;;;;;;;6377711;22;20006;-91
2023/05/21 08:48:35;;;;;;;14.45;3.25;;;;;;;;;;6383595;22;20013;-92
2023/05/21 08:51:26;;;;;;;9.75;3.78;;;;;;;;;;6351902;22;20009;-91
2023/05/21 08:53:55;;;;;;;8.93;2.90;;;;;;;;;;6352831;22;20006;-91
2023/05/21 09:02:33;;;;;;;4.45;3.05;;;;;;;;;;6241378;23;20155;-91
2023/05/21 09:05:20;;;;;;;13.48;4.03;;;;;;;;;;6234123;23;20016;-92
2023/05/21 09:08:00;;;;;;;11.68;3.70;;;;;;;;;;6260537;23;20008;-90
2023/05/21 09:11:03;;;;;;;;;;;;;;;;;;;;;
2023/05/21 11:57:30;;;;;;;8.55;4.63;;;;;;;;;;6359702;22;20096;-86
2023/05/21 12:00:16;;;;;;;12.70;5.03;;;;;;;;;;6366962;22;20452;-84
2023/05/21 12:02:47;;;;;;;9.88;4.80;;;;;;;;;;6339493;22;20007;-84
2023/05/21 12:05:47;;;;;;;7.10;4.30;;;;;;;;;;6376154;22;20006;-91
2023/05/21 12:08:24;;;;;;;8.95;5.32;;;;;;;;;;6224615;23;20013;-90
2023/05/21 12:10:56;;;;;;;12.27;4.95;;;;;;;;;;6225803;23;20008;-92
2023/05/21 12:13:46;;;;;;;9.88;4.68;;;;;;;;;;6325010;22;20006;-90
2023/05/21 12:16:33;;;;;;;14.73;4.70;;;;;;;;;;6352677;22;20006;-95
2023/05/21 12:24:20;;;;;;;13.60;6.10;;;;;;;;;;6367443;22;20026;-93
2023/05/21 12:26:48;;;;;;;16.15;6.10;;;;;;;;;;6332062;22;20006;-94
2023/05/21 12:29:16;;;;;;;15.18;6.10;;;;;;;;;;6299230;22;20028;-84
2023/05/21 12:32:31;;;;;;;9.38;5.45;;;;;;;;;;6339741;22;20007;-83
2023/05/21 12:34:38;;;;;;;18.33;6.22;;;;;;;;;;6330552;22;20357;-84
2023/05/21 12:42:34;;;;;;;;;;;;;;;;;;;;;
2023/05/21 12:45:57;;;;;;;;;;;;;;;;;;;;;
2023/05/21 12:48:48;;;;;;;;;;;;;;;;;;;;;
2023/05/21 12:51:46;;;;;;;;;;;;;;;;;;;;;
2023/05/21 12:55:00;;;;;;;;;;;;;;;;;;;;;
2023/05/21 12:58:12;;;;;;;;;;;;;;;;;;;;;
2023/05/21 13:01:00;;;;;;;10.20;6.00;;;;;;;;;;6229514;23;19996;-88
2023/05/21 13:03:43;;;;;;;15.35;6.50;;;;;;;;;;6192914;23;20059;-87
2023/05/21 13:06:38;;;;;;;;;;;;;;;;;;;;;
2023/05/21 13:09:35;;;;;;;12.57;6.80;;;;;;;;;;6169306;23;20010;-88
2023/05/21 13:15:14;;;;;;;;;;;;;;;;;;;;;
2023/05/21 13:18:26;;;;;;;12.45;6.63;;;;;;;;;;6252312;23;20035;-87
2023/05/21 13:21:51;;;;;;;14.85;6.90;;;;;;;;;;6226880;23;20149;-87
2023/05/21 13:24:32;;;;;;;21.50;8.07;;;;;;;;;;6256918;22;20000;-87
2023/05/21 13:27:04;;;;;;;14.43;8.50;;;;;;;;;;6262186;23;19999;-88
2023/05/21 13:29:30;;;;;;;14.63;6.85;;;;;;;;;;6234252;23;20008;-87
2023/05/21 13:31:59;;;;;;;16.33;7.10;;;;;;;;;;6230731;23;20011;-87
2023/05/21 13:34:30;;;;;;;15.38;7.82;;;;;;;;;;6299796;22;20007;-87
2023/05/21 13:37:08;;;;;;;15.73;7.40;;;;;;;;;;6329472;22;20011;-87
2023/05/21 13:39:44;;;;;;;15.85;7.55;;;;;;;;;;6291504;22;20015;-87
2023/05/21 13:42:44;;;;;;;19.30;8.10;;;;;;;;;;6291705;22;20078;-89
2023/05/21 13:45:18;;;;;;;18.10;7.82;;;;;;;;;;6316734;22;20015;-89
2023/05/21 13:47:45;;;;;;;21.55;8.52;;;;;;;;;;6314488;22;20031;-87
2023/05/21 13:50:31;;;;;;;15.68;7.53;;;;;;;;;;6315930;22;20003;-88
2023/05/21 13:52:57;;;;;;;14.25;7.20;;;;;;;;;;6316757;22;20007;-89
2023/05/21 13:55:26;;;;;;;17.35;8.10;;;;;;;;;;6314689;22;20118;-89
2023/05/21 13:58:04;;;;;;;13.50;8.15;;;;;;;;;;6314462;22;20027;-89
2023/05/21 14:01:00;;;;;;;14.07;8.13;;;;;;;;;;6313597;22;20008;-88
2023/05/21 14:03:54;;;;;;;13.43;7.65;;;;;;;;;;6318305;22;20003;-94
2023/05/21 14:13:13;;;;;;;;;;;;;;;;;;;;;
2023/05/21 14:16:24;;;;;;;12.93;7.82;;;;;;;;;;6161889;23;20044;-95
2023/05/21 14:26:40;;;;;;;16.90;9.77;;;;;;;;;;6361591;22;20026;-92
2023/05/21 14:29:07;;;;;;;18.38;9.93;;;;;;;;;;6330145;22;20195;-92
2023/05/21 14:31:34;;;;;;;17.88;9.90;;;;;;;;;;6358453;22;20006;-90
2023/05/21 14:34:23;;;;;;;20.73;9.43;;;;;;;;;;6387271;22;20013;-92
2023/05/21 14:36:49;;;;;;;14.32;8.95;;;;;;;;;;6359469;22;20058;-93
2023/05/21 14:57:50;;;;;;;19.05;10.30;;;;;;;;;;6372881;22;20021;-95
2023/05/21 15:00:23;;;;;;;17.27;10.25;;;;;;;;;;6331370;22;20018;-95
2023/05/21 15:02:50;;;;;;;21.77;10.52;;;;;;;;;;6328656;22;20033;-95
2023/05/21 15:05:17;;;;;;;22.05;12.10;;;;;;;;;;6328256;22;20006;-94
2023/05/21 15:07:43;;;;;;;23.10;11.18;;;;;;;;;;6322783;22;20104;-94
2023/05/21 15:10:09;;;;;;;21.90;11.23;;;;;;;;;;6319702;22;20463;-94
2023/05/21 15:12:52;;;;;;;17.48;12.43;;;;;;;;;;6347089;22;20068;-94
2023/05/21 15:18:10;;;;;;;19.85;13.07;;;;;;;;;;6378404;22;20010;-90
2023/05/21 15:20:51;;;;;;;;;;;;;;;;;;;;;
2023/05/21 15:23:21;;;;;;;19.02;12.55;;;;;;;;;;6379422;22;20469;-88
2023/05/21 15:28:33;;;;;;;21.95;12.77;;;;;;;;;;6376877;22;20025;-93
2023/05/21 15:31:01;;;;;;;18.23;11.35;;;;;;;;;;6319865;22;20010;-94
2023/05/21 15:33:32;;;;;;;20.88;11.32;;;;;;;;;;6319447;22;20038;-94
2023/05/21 15:36:04;;;;;;;22.90;11.98;;;;;;;;;;6325821;22;20014;-94
2023/05/21 15:38:35;;;;;;;21.83;12.93;;;;;;;;;;6321467;22;20466;-94
2023/05/21 15:41:02;;;;;;;18.65;11.70;;;;;;;;;;6325217;22;20034;-94
2023/05/21 15:43:29;;;;;;;21.38;12.88;;;;;;;;;;6345995;22;20203;-94
2023/05/21 15:48:54;;;;;;;20.05;13.10;;;;;;;;;;6377680;22;20071;-94
2023/05/21 15:51:20;;;;;;;26.35;13.77;;;;;;;;;;6345919;22;20017;-94
2023/05/21 15:53:59;;;;;;;23.42;13.80;;;;;;;;;;6321252;22;20010;-94
2023/05/21 15:56:31;;;;;;;19.52;12.13;;;;;;;;;;6322075;22;20010;-94
2023/05/21 15:59:04;;;;;;;20.95;13.80;;;;;;;;;;6346250;22;20009;-95
2023/05/21 16:01:32;;;;;;;20.45;12.93;;;;;;;;;;6319696;22;20075;-95
2023/05/21 16:04:03;;;;;;;20.17;12.55;;;;;;;;;;6347893;22;20002;-93
2023/05/21 16:06:30;;;;;;;20.60;14.02;;;;;;;;;;6320227;22;20014;-93
2023/05/21 16:08:58;;;;;;;26.48;13.27;;;;;;;;;;6372955;22;20339;-94
2023/05/21 16:11:27;;;;;;;19.75;14.10;;;;;;;;;;6345158;22;20002;-95
2023/05/21 16:13:54;;;;;;;25.15;14.15;;;;;;;;;;6346470;22;20435;-95
2023/05/21 16:16:25;;;;;;;24.55;12.77;;;;;;;;;;6323880;22;20438;-95
2023/05/21 16:18:53;;;;;;;22.45;13.95;;;;;;;;;;6347502;22;20023;-94
2023/05/21 16:21:22;;;;;;;26.45;14.25;;;;;;;;;;6321446;22;20002;-93
2023/05/21 16:23:51;;;;;;;27.67;13.80;;;;;;;;;;6319120;22;20009;-93
2023/05/21 16:26:18;;;;;;;27.55;14.63;;;;;;;;;;6348238;22;20018;-94
2023/05/21 16:28:44;;;;;;;25.08;15.27;;;;;;;;;;6348543;22;20079;-94
2023/05/21 16:31:33;;;;;;;30.83;14.32;;;;;;;;;;6320403;22;20006;-92
2023/05/21 16:34:24;;;;;;;;;;;;;;;;;;;;;
2023/05/21 16:36:54;;;;;;;21.08;13.48;;;;;;;;;;6345435;22;20034;-93
2023/05/21 16:39:56;;;;;;;20.20;13.35;;;;;;;;;;6322445;22;20007;-92
2023/05/21 16:42:29;;;;;;;25.75;15.07;;;;;;;;;;6324457;22;19999;-95
2023/05/21 16:45:04;;;;;;;22.92;14.07;;;;;;;;;;6373514;22;20010;-93
2023/05/21 16:47:30;;;;;;;26.10;13.93;;;;;;;;;;6315818;22;20486;-95
2023/05/21 16:49:57;;;;;;;20.73;13.88;;;;;;;;;;6289123;22;20025;-95
2023/05/21 16:52:26;;;;;;;27.90;15.32;;;;;;;;;;6322174;22;20014;-94
2023/05/21 16:54:56;;;;;;;29.40;14.18;;;;;;;;;;6318763;22;20010;-96
2023/05/21 16:57:35;;;;;;;23.35;14.43;;;;;;;;;;6350522;22;20002;-94
2023/05/21 17:00:23;;;;;;;25.63;15.13;;;;;;;;;;6353331;22;20121;-95
2023/05/21 17:03:06;;;;;;;24.65;14.75;;;;;;;;;;6347607;22;20002;-94
2023/05/21 17:05:37;;;;;;;25.75;13.95;;;;;;;;;;6328195;22;20277;-92
2023/05/21 17:08:09;;;;;;;25.92;14.98;;;;;;;;;;6350372;22;20036;-94
2023/05/21 17:10:38;;;;;;;26.75;15.80;;;;;;;;;;6327639;22;20006;-95
2023/05/21 17:13:25;;;;;;;27.85;14.50;;;;;;;;;;6347898;22;20048;-94
2023/05/21 17:19:12;;;;;;;31.63;14.45;;;;;;;;;;6261987;23;20008;-94
2023/05/21 17:21:48;;;;;;;28.55;14.73;;;;;;;;;;6247395;23;20051;-95
2023/05/21 17:24:18;;;;;;;21.95;14.27;;;;;;;;;;6224176;23;20031;-94
2023/05/21 17:26:59;;;;;;;25.80;13.98;;;;;;;;;;6233416;23;20027;-94
2023/05/21 17:32:29;;;;;;;26.20;13.75;;;;;;;;;;6250448;23;20035;-93
2023/05/21 17:35:00;;;;;;;28.83;15.07;;;;;;;;;;6226009;23;20015;-93
2023/05/21 17:37:28;;;;;;;31.33;15.10;;;;;;;;;;6311218;22;20022;-94
2023/05/21 17:40:00;;;;;;;27.98;15.02;;;;;;;;;;6320142;22;20007;-93
2023/05/21 17:42:26;;;;;;;23.52;14.45;;;;;;;;;;6342170;22;20084;-94
2023/05/21 17:44:59;;;;;;;32.92;14.55;;;;;;;;;;6376698;22;20013;-94
2023/05/21 17:47:31;;;;;;;30.67;15.93;;;;;;;;;;6348060;22;20044;-94
2023/05/21 17:49:58;;;;;;;34.30;15.38;;;;;;;;;;6345099;22;20002;-93
2023/05/21 17:52:25;;;;;;;32.00;15.25;;;;;;;;;;6343108;22;20006;-94
2023/05/21 17:54:58;;;;;;;24.52;15.60;;;;;;;;;;6348113;22;20011;-92
2023/05/21 17:57:24;;;;;;;26.15;14.77;;;;;;;;;;6313991;22;20010;-92
2023/05/21 17:59:53;;;;;;;26.33;15.45;;;;;;;;;;6342758;22;20098;-93
2023/05/21 18:02:24;;;;;;;29.05;16.10;;;;;;;;;;6340026;22;20025;-93
2023/05/21 18:04:53;;;;;;;31.70;15.13;;;;;;;;;;6342937;22;20431;-94
2023/05/21 18:07:21;;;;;;;31.63;15.57;;;;;;;;;;6317990;22;20025;-93
2023/05/21 18:09:48;;;;;;;29.67;15.23;;;;;;;;;;6342830;22;20040;-93
2023/05/21 18:12:20;;;;;;;29.35;15.57;;;;;;;;;;6343199;22;20006;-94
2023/05/21 18:14:49;;;;;;;28.83;15.88;;;;;;;;;;6344297;22;20009;-93
2023/05/21 18:17:15;;;;;;;27.73;15.23;;;;;;;;;;6344277;22;20003;-91
2023/05/21 18:19:51;;;;;;;27.40;15.65;;;;;;;;;;6318823;22;20006;-92
2023/05/21 18:22:17;;;;;;;24.65;14.95;;;;;;;;;;6320318;22;20051;-94
2023/05/21 18:24:47;;;;;;;25.15;14.15;;;;;;;;;;6358726;22;20033;-94
2023/05/21 18:27:13;;;;;;;27.90;15.82;;;;;;;;;;6357367;22;20013;-94
2023/05/21 18:29:41;;;;;;;28.55;15.25;;;;;;;;;;6334562;22;20054;-94
2023/05/21 18:32:10;;;;;;;25.30;14.57;;;;;;;;;;6356495;22;20010;-93
2023/05/21 18:34:42;;;;;;;23.42;13.82;;;;;;;;;;6352195;22;20298;-92
2023/05/21 18:37:11;;;;;;;23.63;13.05;;;;;;;;;;6325303;22;20018;-93
2023/05/21 18:39:37;;;;;;;29.60;15.13;;;;;;;;;;6347316;22;20459;-92
2023/05/21 18:42:04;;;;;;;29.90;14.32;;;;;;;;;;6319186;22;20439;-93
2023/05/21 18:44:31;;;;;;;28.00;14.00;;;;;;;;;;6343876;22;19999;-93
2023/05/21 18:46:57;;;;;;;24.05;13.95;;;;;;;;;;6317259;22;20007;-92
2023/05/21 18:49:24;;;;;;;21.48;13.95;;;;;;;;;;6317509;22;20009;-93
2023/05/21 18:51:53;;;;;;;31.85;15.77;;;;;;;;;;6341741;22;20009;-92
2023/05/21 18:54:19;;;;;;;27.10;13.80;;;;;;;;;;6341630;22;20454;-94
2023/05/21 18:56:46;;;;;;;28.52;14.75;;;;;;;;;;6315469;22;20017;-93
2023/05/21 18:59:13;;;;;;;31.88;14.50;;;;;;;;;;6317502;22;20090;-93
2023/05/21 19:01:41;;;;;;;33.95;15.65;;;;;;;;;;6314667;22;20013;-94
2023/05/21 19:04:11;;;;;;;31.23;15.10;;;;;;;;;;6343846;22;20040;-94
2023/05/21 19:06:40;;;;;;;27.60;14.50;;;;;;;;;;6316467;22;20101;-93
2023/05/21 19:09:09;;;;;;;30.00;16.00;;;;;;;;;;6343120;22;20090;-93
2023/05/21 19:11:36;;;;;;;24.63;15.52;;;;;;;;;;6317033;22;20039;-94
2023/05/21 19:14:12;;;;;;;29.27;15.80;;;;;;;;;;6342972;22;20011;-94
2023/05/21 19:16:38;;;;;;;27.52;15.02;;;;;;;;;;6319312;22;20462;-93
2023/05/21 19:19:06;;;;;;;25.45;15.07;;;;;;;;;;6344247;22;20003;-93
2023/05/21 19:21:32;;;;;;;30.38;15.82;;;;;;;;;;6342675;22;20036;-93
2023/05/21 19:24:17;;;;;;;34.58;15.68;;;;;;;;;;6343288;22;20033;-93
2023/05/21 19:26:46;;;;;;;34.25;16.63;;;;;;;;;;6322436;22;20017;-93
2023/05/21 19:29:12;;;;;;;28.35;15.75;;;;;;;;;;6318754;22;20365;-93
2023/05/21 19:31:38;;;;;;;28.98;15.70;;;;;;;;;;6317303;22;20350;-92
2023/05/21 19:34:09;;;;;;;30.88;16.42;;;;;;;;;;6343337;22;20021;-93
2023/05/21 19:36:38;;;;;;;29.50;15.75;;;;;;;;;;6315754;22;20519;-94
2023/05/21 19:39:07;;;;;;;27.88;15.80;;;;;;;;;;6342433;22;20080;-93
2023/05/21 19:41:34;;;;;;;29.92;14.60;;;;;;;;;;6315404;22;20006;-94
2023/05/21 19:44:00;;;;;;;32.35;16.30;;;;;;;;;;6341020;22;20168;-93
2023/05/21 19:46:27;;;;;;;34.33;15.05;;;;;;;;;;6342731;22;20913;-93
2023/05/21 19:48:54;;;;;;;25.83;14.60;;;;;;;;;;6341640;22;20036;-92
2023/05/21 19:51:21;;;;;;;25.52;16.35;;;;;;;;;;6314489;22;20033;-92
2023/05/21 19:53:54;;;;;;;30.63;16.20;;;;;;;;;;6340296;22;20014;-93
2023/05/21 19:56:21;;;;;;;28.40;15.68;;;;;;;;;;6339700;22;20006;-93
2023/05/21 19:58:48;;;;;;;29.77;17.17;;;;;;;;;;6315121;22;20149;-92